createdAt,value
2023-02-21T00:01:43.500Z,15.27
2023-02-21T00:04:31.785Z,18.40
2023-02-21T00:07:20.052Z,16.60
2023-02-21T00:10:08.623Z,16.95
2023-02-21T00:12:57.368Z,15.68
2023-02-21T00:15:45.805Z,15.33
2023-02-21T00:18:34.016Z,15.70
2023-02-21T00:21:23.932Z,15.48
2023-02-21T00:24:11.889Z,15.05
2023-02-21T00:27:00.493Z,17.33
2023-02-21T00:29:46.812Z,15.52
2023-02-21T00:32:32.687Z,15.73
2023-02-21T00:35:21.369Z,16.30
2023-02-21T00:38:11.527Z,18.75
2023-02-21T00:41:00.242Z,16.50
2023-02-21T00:43:54.894Z,20.52
2023-02-21T00:46:42.759Z,16.65
2023-02-21T00:49:31.023Z,16.30
2023-02-21T00:52:18.625Z,18.13
2023-02-21T00:55:07.236Z,18.60
2023-02-21T00:57:55.824Z,19.20
2023-02-21T01:00:44.560Z,17.87
2023-02-21T01:03:33.211Z,17.70
2023-02-21T01:06:21.878Z,19.80
2023-02-21T01:09:10.423Z,18.77
2023-02-21T01:11:58.752Z,16.67
2023-02-21T01:14:46.979Z,18.92
2023-02-21T01:17:35.482Z,20.00
2023-02-21T01:20:25.454Z,20.27
2023-02-21T01:23:14.018Z,16.95
2023-02-21T01:26:02.274Z,20.30
2023-02-21T01:28:50.907Z,21.75
2023-02-21T01:31:40.642Z,21.08
2023-02-21T01:34:29.300Z,19.45
2023-02-21T01:37:17.797Z,18.87
2023-02-21T01:40:06.093Z,20.42
2023-02-21T01:42:54.340Z,22.67
2023-02-21T01:45:42.328Z,18.93
2023-02-21T01:48:39.446Z,19.67
2023-02-21T01:51:34.518Z,18.88
2023-02-21T01:54:25.385Z,19.13
2023-02-21T01:57:19.710Z,17.55
2023-02-21T02:00:15.652Z,16.35
2023-02-21T02:03:25.267Z,17.35
2023-02-21T02:06:31.893Z,19.20
2023-02-21T02:09:39.227Z,17.45
2023-02-21T02:12:57.221Z,16.50
2023-02-21T02:15:48.489Z,17.38
2023-02-21T02:18:55.956Z,16.58
2023-02-21T02:22:33.293Z,13.88
2023-02-21T02:25:41.065Z,16.58
2023-02-21T02:28:49.734Z,17.13
2023-02-21T02:35:04.706Z,16.98
2023-02-21T02:38:07.174Z,20.88
2023-02-21T02:41:04.031Z,19.20
2023-02-21T02:43:58.056Z,15.00
2023-02-21T02:46:33.051Z,14.73
2023-02-21T02:49:22.346Z,16.58
2023-02-21T02:54:23.364Z,17.95
2023-02-21T02:56:53.717Z,18.27
2023-02-21T02:59:33.307Z,16.33
2023-02-21T03:02:58.273Z,16.30
2023-02-21T03:06:19.417Z,18.23
2023-02-21T03:09:13.841Z,14.85
2023-02-21T03:12:24.543Z,18.30
2023-02-21T03:18:23.673Z,16.75
2023-02-21T03:21:05.851Z,19.38
2023-02-21T03:23:40.478Z,16.52
2023-02-21T03:26:17.014Z,17.65
2023-02-21T03:28:50.721Z,17.40
2023-02-21T03:31:31.763Z,19.10
2023-02-21T03:33:59.260Z,15.00
2023-02-21T03:36:29.336Z,16.60
2023-02-21T03:38:59.056Z,18.83
2023-02-21T03:41:28.855Z,18.42
2023-02-21T03:43:58.858Z,16.25
2023-02-21T03:46:28.860Z,17.10
2023-02-21T03:48:58.537Z,19.10
2023-02-21T03:51:28.299Z,16.70
2023-02-21T03:53:58.122Z,18.45
2023-02-21T03:56:36.723Z,18.85
2023-02-21T03:59:10.688Z,15.93
2023-02-21T04:01:40.543Z,17.38
2023-02-21T04:04:10.456Z,16.35
2023-02-21T04:06:40.226Z,19.50
2023-02-21T04:09:10.054Z,18.80
2023-02-21T04:11:45.419Z,19.48
2023-02-21T04:14:14.059Z,20.52
2023-02-21T04:16:43.447Z,15.80
2023-02-21T04:19:13.584Z,16.98
2023-02-21T04:21:43.366Z,20.15
2023-02-21T04:24:13.847Z,20.15
2023-02-21T04:26:43.058Z,17.90
2023-02-21T04:29:13.124Z,19.45
2023-02-21T04:31:43.225Z,20.20
2023-02-21T04:34:12.539Z,20.13
2023-02-21T04:36:40.461Z,20.50
2023-02-21T04:39:09.092Z,21.45
2023-02-21T04:41:36.709Z,19.52
2023-02-21T04:44:06.364Z,19.83
2023-02-21T04:46:34.315Z,16.98
2023-02-21T04:49:02.299Z,20.30
2023-02-21T04:51:30.488Z,22.83
2023-02-21T04:53:58.878Z,22.08
2023-02-21T04:56:28.148Z,21.05
2023-02-21T04:58:56.599Z,20.20
2023-02-21T05:01:31.493Z,20.50
2023-02-21T05:04:02.326Z,22.02
2023-02-21T05:06:33.075Z,21.77
2023-02-21T05:09:02.998Z,21.80
2023-02-21T05:11:35.131Z,23.40
2023-02-21T05:14:03.804Z,21.77
2023-02-21T05:16:31.397Z,22.27
2023-02-21T05:18:59.857Z,20.27
2023-02-21T05:21:28.388Z,23.30
2023-02-21T05:23:58.135Z,23.77
2023-02-21T05:26:36.249Z,24.08
2023-02-21T05:29:06.431Z,23.42
2023-02-21T05:31:34.766Z,24.80
2023-02-21T05:34:04.656Z,28.30
2023-02-21T05:36:34.430Z,28.42
2023-02-21T05:39:07.497Z,22.42
2023-02-21T05:41:37.266Z,21.65
2023-02-21T05:44:06.466Z,21.80
2023-02-21T05:46:36.530Z,23.55
2023-02-21T05:49:07.319Z,24.23
2023-02-21T05:51:40.955Z,21.88
2023-02-21T05:54:19.661Z,22.80
2023-02-21T05:56:52.639Z,23.38
2023-02-21T05:59:22.691Z,23.08
2023-02-21T06:01:52.721Z,21.42
2023-02-21T06:04:23.728Z,22.15
2023-02-21T06:06:53.559Z,22.85
2023-02-21T06:09:23.649Z,20.90
2023-02-21T06:11:57.371Z,26.02
2023-02-21T06:14:27.151Z,25.13
2023-02-21T06:16:57.054Z,23.05
2023-02-21T06:19:27.144Z,19.80
2023-02-21T06:21:56.596Z,22.15
2023-02-21T06:24:26.299Z,20.92
2023-02-21T06:26:56.097Z,24.88
2023-02-21T06:29:26.029Z,17.90
2023-02-21T06:32:02.163Z,21.60
2023-02-21T06:34:30.987Z,24.23
2023-02-21T06:37:00.651Z,22.67
2023-02-21T06:39:30.645Z,27.08
2023-02-21T06:42:00.608Z,20.15
2023-02-21T06:44:30.272Z,21.02
2023-02-21T06:47:00.152Z,22.48
2023-02-21T06:49:29.796Z,21.80
2023-02-21T06:52:00.911Z,22.35
2023-02-21T06:54:30.696Z,23.55
2023-02-21T06:57:01.866Z,21.00
2023-02-21T06:59:32.933Z,25.67
2023-02-21T07:02:03.012Z,22.42
2023-02-21T07:04:33.147Z,23.65
2023-02-21T07:07:02.949Z,25.25
2023-02-21T07:09:32.720Z,22.58
2023-02-21T07:12:03.394Z,22.88
2023-02-21T07:14:33.666Z,19.90
2023-02-21T07:17:04.079Z,24.45
2023-02-21T07:19:33.484Z,21.13
2023-02-21T07:22:03.988Z,20.83
2023-02-21T07:24:34.682Z,20.83
2023-02-21T07:27:05.230Z,20.80
2023-02-21T07:29:34.892Z,20.75
2023-02-21T07:32:05.030Z,20.50
2023-02-21T07:34:34.773Z,20.92
2023-02-21T07:37:04.525Z,19.63
2023-02-21T07:39:34.445Z,19.08
2023-02-21T07:42:09.605Z,18.50
2023-02-21T07:44:39.753Z,20.33
2023-02-21T07:47:08.162Z,23.17
2023-02-21T07:49:41.488Z,18.15
2023-02-21T07:52:11.248Z,19.42
2023-02-21T07:54:41.215Z,15.50
2023-02-21T07:57:10.775Z,13.90
2023-02-21T07:59:40.581Z,16.80
2023-02-21T08:02:12.716Z,13.07
2023-02-21T08:04:43.129Z,12.77
2023-02-21T08:07:12.806Z,11.52
2023-02-21T08:09:41.695Z,11.20
2023-02-21T08:12:14.879Z,9.48
2023-02-21T08:14:44.912Z,7.32
2023-02-21T08:17:14.915Z,6.13
2023-02-21T08:19:44.436Z,7.38
2023-02-21T08:22:14.307Z,5.75
2023-02-21T08:24:44.109Z,4.68
2023-02-21T08:27:13.947Z,3.45
2023-02-21T08:29:43.950Z,2.13
2023-02-21T08:32:14.078Z,1.98
2023-02-21T08:34:49.644Z,1.55
2023-02-21T08:37:20.270Z,1.73
2023-02-21T08:39:52.880Z,1.48
2023-02-21T08:42:23.088Z,2.28
2023-02-21T08:44:53.145Z,2.83
2023-02-21T08:47:22.848Z,3.55
2023-02-21T08:49:52.674Z,3.03
2023-02-21T08:52:22.490Z,4.43
2023-02-21T08:54:52.191Z,4.15
2023-02-21T08:57:22.011Z,3.78
2023-02-21T08:59:52.072Z,4.90
2023-02-21T09:02:25.748Z,3.47
2023-02-21T09:04:55.608Z,4.13
2023-02-21T09:07:26.061Z,8.02
2023-02-21T09:09:55.644Z,1.50
2023-02-21T09:12:25.646Z,2.72
2023-02-21T09:14:55.289Z,3.88
2023-02-21T09:17:25.100Z,2.63
2023-02-21T09:19:54.806Z,3.03
2023-02-21T09:22:24.554Z,2.50
2023-02-21T09:24:54.294Z,1.90
2023-02-21T09:27:36.489Z,2.10
2023-02-21T09:30:18.488Z,1.70
2023-02-21T09:32:46.155Z,1.80
2023-02-21T09:35:17.533Z,1.38
2023-02-21T09:37:48.559Z,2.15
2023-02-21T09:40:39.502Z,2.25
2023-02-21T09:43:33.363Z,2.47
2023-02-21T09:46:29.885Z,3.35
2023-02-21T09:49:04.551Z,3.75
2023-02-21T09:51:41.609Z,2.47
2023-02-21T09:54:33.227Z,1.80
2023-02-21T09:57:13.724Z,1.42
2023-02-21T09:59:43.921Z,2.60
2023-02-21T10:03:09.973Z,1.45
2023-02-21T10:06:05.413Z,4.47
2023-02-21T10:08:56.599Z,1.42
2023-02-21T10:12:14.716Z,3.58
2023-02-21T10:15:31.561Z,3.33
2023-02-21T10:18:34.086Z,2.38
2023-02-21T10:21:30.947Z,0.82
2023-02-21T10:24:37.732Z,1.40
2023-02-21T10:27:18.471Z,2.25
2023-02-21T10:30:17.135Z,1.10
2023-02-21T10:32:47.431Z,2.35
2023-02-21T10:35:15.976Z,3.47
2023-02-21T10:37:55.164Z,0.40
2023-02-21T10:40:41.616Z,3.72
2023-02-21T10:43:21.198Z,2.08
2023-02-21T10:46:08.103Z,1.95
2023-02-21T10:48:43.271Z,2.00
2023-02-21T10:51:32.581Z,3.38
2023-02-21T10:56:56.907Z,2.03
2023-02-21T10:59:42.300Z,3.03
2023-02-21T11:02:40.353Z,2.28
2023-02-21T11:05:23.805Z,2.28
2023-02-21T11:08:09.848Z,3.50
2023-02-21T11:10:45.176Z,4.57
2023-02-21T11:13:23.410Z,2.85
2023-02-21T11:16:20.372Z,3.88
2023-02-21T11:19:12.263Z,2.50
2023-02-21T11:21:45.339Z,2.08
2023-02-21T11:24:15.552Z,4.35
2023-02-21T11:26:54.017Z,3.13
2023-02-21T11:29:27.354Z,3.05
2023-02-21T11:31:57.607Z,4.07
2023-02-21T11:34:30.597Z,3.08
2023-02-21T11:37:05.451Z,4.20
2023-02-21T11:39:35.584Z,1.88
2023-02-21T11:42:32.397Z,5.28
2023-02-21T11:45:24.197Z,2.05
2023-02-21T11:48:07.067Z,2.25
2023-02-21T11:50:49.656Z,2.60
2023-02-21T11:53:34.778Z,2.65
2023-02-21T11:56:51.118Z,2.47
2023-02-21T12:00:02.738Z,0.90
2023-02-21T12:03:08.072Z,4.32
2023-02-21T12:06:28.986Z,4.85
2023-02-21T12:09:42.686Z,5.80
2023-02-21T12:12:32.918Z,5.50
2023-02-21T12:15:31.003Z,3.67
2023-02-21T12:19:01.315Z,3.20
2023-02-21T12:22:02.415Z,4.70
2023-02-21T12:25:27.685Z,3.45
2023-02-21T12:28:20.026Z,1.50
2023-02-21T12:31:23.489Z,6.47
2023-02-21T12:34:10.672Z,1.85
2023-02-21T12:37:20.326Z,2.10
2023-02-21T12:40:57.640Z,4.38
2023-02-21T12:43:58.357Z,4.72
2023-02-21T12:47:01.339Z,3.28
2023-02-21T12:50:26.393Z,3.40
2023-02-21T12:53:31.029Z,2.60
2023-02-21T12:56:59.887Z,5.65
2023-02-21T12:59:48.464Z,3.28
2023-02-21T13:03:05.745Z,7.40
2023-02-21T13:05:50.531Z,4.10
2023-02-21T13:08:50.204Z,7.55
2023-02-21T13:11:55.081Z,2.63
2023-02-21T13:14:41.408Z,3.97
2023-02-21T13:17:17.183Z,3.33
2023-02-21T13:20:10.490Z,5.78
2023-02-21T13:24:02.289Z,8.60
2023-02-21T13:27:06.105Z,7.00
2023-02-21T13:29:43.193Z,6.65
2023-02-21T13:32:22.665Z,6.40
2023-02-21T13:37:46.592Z,6.10
2023-02-21T13:40:47.707Z,9.23
2023-02-21T13:43:35.169Z,4.10
2023-02-21T13:46:29.750Z,6.55
2023-02-21T13:49:47.782Z,3.38
2023-02-21T13:52:23.250Z,4.55
2023-02-21T13:55:12.686Z,3.05
2023-02-21T13:58:11.964Z,5.07
2023-02-21T14:00:39.814Z,5.72
2023-02-21T14:03:12.543Z,5.82
2023-02-21T14:05:48.627Z,2.95
2023-02-21T14:08:45.403Z,2.92
2023-02-21T14:11:28.860Z,7.10
2023-02-21T14:14:27.205Z,5.20
2023-02-21T14:17:06.248Z,2.60
2023-02-21T14:19:46.393Z,9.73
2023-02-21T14:22:29.448Z,7.22
2023-02-21T14:25:25.632Z,5.55
2023-02-21T14:27:53.929Z,5.90
2023-02-21T14:30:34.458Z,4.10
2023-02-21T14:33:26.200Z,5.20
2023-02-21T14:36:10.545Z,6.65
2023-02-21T14:38:45.365Z,6.28
2023-02-21T14:41:59.537Z,10.45
2023-02-21T14:45:11.050Z,5.03
2023-02-21T14:48:06.722Z,9.20
2023-02-21T14:50:54.508Z,8.52
2023-02-21T14:54:04.240Z,7.53
2023-02-21T14:57:01.305Z,8.83
2023-02-21T15:00:18.865Z,9.25
2023-02-21T15:03:20.719Z,11.25
2023-02-21T15:05:50.624Z,10.43
2023-02-21T15:08:26.073Z,6.07
2023-02-21T15:11:29.455Z,7.07
2023-02-21T15:14:30.689Z,7.10
2023-02-21T15:17:19.140Z,7.80
2023-02-21T15:22:36.080Z,12.73
2023-02-21T15:25:09.037Z,4.55
2023-02-21T15:28:01.749Z,11.65
2023-02-21T15:30:42.143Z,7.28
2023-02-21T15:33:23.301Z,12.98
2023-02-21T15:36:01.794Z,5.60
2023-02-21T15:39:29.287Z,4.50
2023-02-21T15:42:09.793Z,9.73
2023-02-21T15:44:53.944Z,8.57
2023-02-21T15:47:30.702Z,8.15
2023-02-21T15:50:42.524Z,11.43
2023-02-21T15:53:25.136Z,10.88
2023-02-21T15:56:25.798Z,5.80
2023-02-21T15:59:26.184Z,9.43
2023-02-21T16:02:23.282Z,9.32
2023-02-21T16:04:53.928Z,15.98
2023-02-21T16:07:40.237Z,7.85
2023-02-21T16:10:15.259Z,9.05
2023-02-21T16:12:48.818Z,20.75
2023-02-21T16:15:18.695Z,14.38
2023-02-21T16:18:08.318Z,13.98
2023-02-21T16:20:44.720Z,14.88
2023-02-21T16:23:35.381Z,10.90
2023-02-21T16:26:15.652Z,15.88
2023-02-21T16:28:45.915Z,17.80
2023-02-21T16:31:29.412Z,15.25
2023-02-21T16:34:00.234Z,13.63
2023-02-21T16:36:32.997Z,15.80
2023-02-21T16:39:02.106Z,17.40
2023-02-21T16:41:31.746Z,22.50
2023-02-21T16:44:01.581Z,16.45
2023-02-21T16:46:31.590Z,18.20
2023-02-21T16:49:01.303Z,16.67
2023-02-21T16:51:34.811Z,12.15
2023-02-21T16:54:04.929Z,22.10
2023-02-21T16:56:35.291Z,15.02
2023-02-21T16:59:09.417Z,14.60
2023-02-21T17:01:39.196Z,17.15
2023-02-21T17:04:19.472Z,19.00
2023-02-21T17:07:01.096Z,17.83
2023-02-21T17:09:39.135Z,15.80
2023-02-21T17:12:15.300Z,19.83
2023-02-21T17:14:45.389Z,20.98
2023-02-21T17:17:15.535Z,27.95
2023-02-21T17:19:45.591Z,16.33
2023-02-21T17:22:15.944Z,10.48
2023-02-21T17:24:45.953Z,21.77
2023-02-21T17:27:16.171Z,15.38
2023-02-21T17:29:50.608Z,10.20
2023-02-21T17:32:20.683Z,20.80
2023-02-21T17:34:50.890Z,23.35
2023-02-21T17:37:20.953Z,14.40
2023-02-21T17:39:56.848Z,55.17
2023-02-21T17:42:27.310Z,16.83
2023-02-21T17:44:58.971Z,18.58
2023-02-21T17:47:29.815Z,11.32
2023-02-21T17:50:02.501Z,21.55
2023-02-21T17:52:33.678Z,14.60
2023-02-21T17:55:07.888Z,21.98
2023-02-21T17:57:40.601Z,12.32
2023-02-21T18:00:26.647Z,13.60
2023-02-21T18:02:57.213Z,15.85
2023-02-21T18:05:25.138Z,15.48
2023-02-21T18:07:54.674Z,13.68
2023-02-21T18:10:26.296Z,19.25
2023-02-21T18:12:54.136Z,16.67
2023-02-21T18:15:27.867Z,22.35
2023-02-21T18:18:03.961Z,13.25
2023-02-21T18:20:35.420Z,30.77
2023-02-21T18:23:08.945Z,13.50
2023-02-21T18:25:39.045Z,14.07
2023-02-21T18:28:09.263Z,21.33
2023-02-21T18:30:39.301Z,12.02
2023-02-21T18:33:09.422Z,17.50
2023-02-21T18:35:39.465Z,22.13
2023-02-21T18:38:09.500Z,13.70
2023-02-21T18:40:45.152Z,17.95
2023-02-21T18:43:29.794Z,16.15
2023-02-21T18:45:59.851Z,21.27
2023-02-21T18:48:30.013Z,12.88
2023-02-21T18:51:00.288Z,23.67
2023-02-21T18:53:30.346Z,18.38
2023-02-21T18:56:00.350Z,20.77
2023-02-21T18:58:30.482Z,20.70
2023-02-21T19:01:00.604Z,18.83
2023-02-21T19:03:30.956Z,11.38
2023-02-21T19:06:01.711Z,14.68
2023-02-21T19:08:31.205Z,21.98
2023-02-21T19:11:01.198Z,13.60
2023-02-21T19:13:31.206Z,19.60
2023-02-21T19:16:01.279Z,21.17
2023-02-21T19:18:32.461Z,17.80
2023-02-21T19:21:01.778Z,21.20
2023-02-21T19:23:31.837Z,21.77
2023-02-21T19:26:01.870Z,14.80
2023-02-21T19:28:32.054Z,17.38
2023-02-21T19:31:02.090Z,21.23
2023-02-21T19:33:32.374Z,16.77
2023-02-21T19:36:08.342Z,17.63
2023-02-21T19:38:37.451Z,15.38
2023-02-21T19:41:08.536Z,19.85
2023-02-21T19:43:36.219Z,14.93
2023-02-21T19:46:06.473Z,16.48
2023-02-21T19:48:37.076Z,18.40
2023-02-21T19:51:06.595Z,20.75
2023-02-21T19:53:36.645Z,23.77
2023-02-21T19:56:07.004Z,18.33
2023-02-21T19:58:37.270Z,15.90
2023-02-21T20:01:08.437Z,22.17
2023-02-21T20:03:35.771Z,18.17
2023-02-21T20:06:04.516Z,19.35
2023-02-21T20:08:32.746Z,15.35
2023-02-21T20:11:01.013Z,20.60
2023-02-21T20:13:29.392Z,18.50
2023-02-21T20:15:58.665Z,20.63
2023-02-21T20:18:26.209Z,17.20
2023-02-21T20:20:54.688Z,22.90
2023-02-21T20:23:23.237Z,23.35
2023-02-21T20:25:52.005Z,14.00
2023-02-21T20:28:20.120Z,21.85
2023-02-21T20:30:48.514Z,21.80
2023-02-21T20:33:17.154Z,22.33
2023-02-21T20:35:45.294Z,11.85
2023-02-21T20:38:13.752Z,16.48
2023-02-21T20:40:42.022Z,20.42
2023-02-21T20:43:10.796Z,23.55
2023-02-21T20:45:39.303Z,16.85
2023-02-21T20:48:11.591Z,18.35
2023-02-21T20:50:41.228Z,33.75
2023-02-21T20:53:11.780Z,24.33
2023-02-21T20:55:41.767Z,24.13
2023-02-21T20:58:11.875Z,21.55
2023-02-21T21:00:42.650Z,21.60
2023-02-21T21:03:15.329Z,26.60
2023-02-21T21:05:48.158Z,22.80
2023-02-21T21:08:18.181Z,17.88
2023-02-21T21:10:48.724Z,20.25
2023-02-21T21:13:18.882Z,24.67
2023-02-21T21:15:48.989Z,23.95
2023-02-21T21:18:19.108Z,23.77
2023-02-21T21:20:47.565Z,23.27
2023-02-21T21:23:16.702Z,21.48
2023-02-21T21:25:45.318Z,16.20
2023-02-21T21:28:13.678Z,22.00
2023-02-21T21:30:42.758Z,25.75
2023-02-21T21:33:11.215Z,17.30
2023-02-21T21:35:38.910Z,16.48
2023-02-21T21:38:07.544Z,27.45
2023-02-21T21:40:36.001Z,25.27
2023-02-21T21:43:07.655Z,18.60
2023-02-21T21:45:44.407Z,20.42
2023-02-21T21:48:15.095Z,22.65
2023-02-21T21:50:46.103Z,17.73
2023-02-21T21:53:16.875Z,27.20
2023-02-21T21:55:47.190Z,20.02
2023-02-21T21:58:17.733Z,24.63
2023-02-21T22:00:47.887Z,17.15
2023-02-21T22:03:18.501Z,21.45
2023-02-21T22:05:50.712Z,29.27
2023-02-21T22:08:22.570Z,14.40
2023-02-21T22:10:52.628Z,16.63
2023-02-21T22:13:22.741Z,21.45
2023-02-21T22:15:54.737Z,14.57
2023-02-21T22:18:24.750Z,23.55
2023-02-21T22:20:54.800Z,25.52
2023-02-21T22:23:26.174Z,18.83
2023-02-21T22:25:57.236Z,17.55
2023-02-21T22:28:25.668Z,27.30
2023-02-21T22:30:55.613Z,15.80
2023-02-21T22:33:26.139Z,21.15
2023-02-21T22:35:55.713Z,14.60
2023-02-21T22:38:25.503Z,16.73
2023-02-21T22:40:59.975Z,29.40
2023-02-21T22:43:30.022Z,22.13
2023-02-21T22:46:00.185Z,12.35
2023-02-21T22:48:30.210Z,14.48
2023-02-21T22:51:00.420Z,20.65
2023-02-21T22:53:30.426Z,17.35
2023-02-21T22:56:02.728Z,20.42
2023-02-21T22:58:32.927Z,13.52
2023-02-21T23:01:07.512Z,15.02
2023-02-21T23:03:41.048Z,20.58
2023-02-21T23:06:11.311Z,20.23
2023-02-21T23:08:49.004Z,19.02
2023-02-21T23:11:26.454Z,17.53
2023-02-21T23:13:57.430Z,20.50
2023-02-21T23:16:24.946Z,12.73
2023-02-21T23:18:53.428Z,22.42
2023-02-21T23:21:23.107Z,17.42
2023-02-21T23:23:53.460Z,21.77
2023-02-21T23:26:21.527Z,17.98
2023-02-21T23:28:50.474Z,28.67
2023-02-21T23:31:21.213Z,20.75
2023-02-21T23:33:53.456Z,20.40
2023-02-21T23:36:23.702Z,14.77
2023-02-21T23:38:53.958Z,25.60
2023-02-21T23:41:24.261Z,21.63
2023-02-21T23:43:54.295Z,19.00
2023-02-21T23:46:25.325Z,17.55
2023-02-21T23:48:55.336Z,24.13
2023-02-21T23:51:26.529Z,22.38
2023-02-21T23:53:56.536Z,19.17
2023-02-21T23:56:27.566Z,16.48
2023-02-21T23:58:57.620Z,25.65
